createdAt,value
2022-08-17T00:02:13.251Z,0.88
2022-08-17T00:04:52.310Z,0.77
2022-08-17T00:07:19.151Z,1.10
2022-08-17T00:09:46.002Z,0.73
2022-08-17T00:12:42.984Z,1.20
2022-08-17T00:15:00.948Z,0.68
2022-08-17T00:17:27.966Z,1.00
2022-08-17T00:19:54.894Z,1.23
2022-08-17T00:22:31.601Z,0.98
2022-08-17T00:25:07.399Z,0.90
2022-08-17T00:27:35.143Z,0.98
2022-08-17T00:30:01.989Z,0.88
2022-08-17T00:33:14.381Z,0.82
2022-08-17T00:35:19.253Z,0.85
2022-08-17T00:37:46.092Z,0.65
2022-08-17T00:40:14.524Z,0.85
2022-08-17T00:42:42.562Z,1.60
2022-08-17T00:45:17.580Z,1.80
2022-08-17T00:47:44.752Z,0.95
2022-08-17T00:50:15.273Z,0.82
2022-08-17T00:52:53.082Z,0.60
2022-08-17T00:55:20.300Z,0.95
2022-08-17T00:57:55.153Z,0.50
2022-08-17T01:00:29.629Z,0.57
2022-08-17T01:03:01.740Z,0.93
2022-08-17T01:05:32.014Z,1.10
2022-08-17T01:08:01.008Z,0.80
2022-08-17T01:10:58.417Z,1.08
2022-08-17T01:13:23.224Z,1.20
2022-08-17T01:15:58.523Z,0.45
2022-08-17T01:18:26.604Z,0.65
2022-08-17T01:20:56.082Z,1.25
2022-08-17T01:23:25.388Z,0.68
2022-08-17T01:25:55.593Z,1.00
2022-08-17T01:28:53.161Z,1.42
2022-08-17T01:31:12.187Z,0.85
2022-08-17T01:33:39.138Z,2.08
2022-08-17T01:36:07.314Z,1.65
2022-08-17T01:38:38.470Z,1.55
2022-08-17T01:41:15.267Z,0.80
2022-08-17T01:43:47.551Z,2.05
2022-08-17T01:46:23.295Z,1.45
2022-08-17T01:48:51.486Z,1.50
2022-08-17T01:51:19.940Z,1.17
2022-08-17T01:53:59.077Z,1.25
2022-08-17T01:56:27.859Z,1.70
2022-08-17T01:58:56.396Z,1.70
2022-08-17T02:01:27.580Z,0.95
2022-08-17T02:04:00.797Z,1.30
2022-08-17T02:06:31.348Z,1.17
2022-08-17T02:09:02.895Z,0.73
2022-08-17T02:11:33.340Z,0.82
2022-08-17T02:14:02.752Z,0.98
2022-08-17T02:16:37.931Z,1.63
2022-08-17T02:19:07.995Z,0.52
2022-08-17T02:21:36.735Z,1.55
2022-08-17T02:24:05.456Z,1.50
2022-08-17T02:26:32.476Z,1.77
2022-08-17T02:28:59.408Z,1.55
2022-08-17T02:31:26.307Z,1.30
2022-08-17T02:33:56.604Z,1.00
2022-08-17T02:36:30.401Z,1.27
2022-08-17T02:38:58.641Z,2.00
2022-08-17T02:41:25.709Z,1.05
2022-08-17T02:43:53.634Z,1.15
2022-08-17T02:46:20.514Z,0.77
2022-08-17T02:48:47.436Z,1.42
2022-08-17T02:51:14.516Z,0.57
2022-08-17T02:53:41.467Z,0.70
2022-08-17T02:56:08.290Z,1.02
2022-08-17T02:58:36.177Z,1.63
2022-08-17T03:01:07.736Z,0.90
2022-08-17T03:03:36.033Z,1.00
2022-08-17T03:06:03.936Z,1.58
2022-08-17T03:08:31.066Z,0.70
2022-08-17T03:10:57.943Z,1.20
2022-08-17T03:13:24.809Z,0.93
2022-08-17T03:15:51.722Z,1.23
2022-08-17T03:18:25.395Z,1.10
2022-08-17T03:21:00.252Z,0.55
2022-08-17T03:23:29.738Z,1.88
2022-08-17T03:25:57.847Z,0.88
2022-08-17T03:28:25.238Z,1.25
2022-08-17T03:30:52.483Z,0.88
2022-08-17T03:33:20.183Z,1.65
2022-08-17T03:35:47.122Z,1.15
2022-08-17T03:38:17.042Z,0.75
2022-08-17T03:40:57.856Z,1.48
2022-08-17T03:43:31.937Z,0.88
2022-08-17T03:46:27.673Z,2.03
2022-08-17T03:49:15.372Z,1.50
2022-08-17T03:52:00.843Z,1.95
2022-08-17T03:54:46.077Z,0.90
2022-08-17T03:57:13.655Z,3.40
2022-08-17T03:59:41.008Z,0.80
2022-08-17T04:02:15.937Z,0.57
2022-08-17T04:04:42.821Z,0.70
2022-08-17T04:07:09.900Z,1.90
2022-08-17T04:09:36.961Z,1.90
2022-08-17T04:12:05.065Z,1.67
2022-08-17T04:14:39.197Z,0.90
2022-08-17T04:17:20.094Z,1.33
2022-08-17T04:19:47.162Z,1.67
2022-08-17T04:22:33.292Z,1.05
2022-08-17T04:25:08.937Z,2.40
2022-08-17T04:27:36.189Z,0.90
2022-08-17T04:30:06.917Z,0.88
2022-08-17T04:33:00.579Z,1.73
2022-08-17T04:35:38.478Z,1.00
2022-08-17T04:38:06.955Z,0.68
2022-08-17T04:40:53.214Z,0.93
2022-08-17T04:43:22.928Z,1.55
2022-08-17T04:45:56.220Z,1.05
2022-08-17T04:48:36.400Z,1.08
2022-08-17T04:51:13.516Z,2.35
2022-08-17T04:53:44.433Z,1.10
2022-08-17T04:56:16.064Z,1.02
2022-08-17T04:58:50.640Z,1.17
2022-08-17T05:01:23.995Z,1.42
2022-08-17T05:03:56.636Z,1.30
2022-08-17T05:06:23.998Z,0.73
2022-08-17T05:08:51.083Z,1.52
2022-08-17T05:11:18.151Z,1.75
2022-08-17T05:13:45.573Z,0.45
2022-08-17T05:16:12.499Z,1.50
2022-08-17T05:18:39.551Z,0.73
2022-08-17T05:21:06.923Z,0.73
2022-08-17T05:23:41.633Z,1.55
2022-08-17T05:26:26.297Z,1.00
2022-08-17T05:29:00.651Z,0.77
2022-08-17T05:31:30.622Z,1.48
2022-08-17T05:33:57.579Z,1.27
2022-08-17T05:36:42.300Z,1.35
2022-08-17T05:39:15.850Z,0.70
2022-08-17T05:41:45.952Z,1.50
2022-08-17T05:44:12.779Z,2.10
2022-08-17T05:46:43.483Z,0.90
2022-08-17T05:49:22.761Z,1.00
2022-08-17T05:52:18.783Z,1.30
2022-08-17T05:55:08.967Z,1.10
2022-08-17T05:57:53.366Z,2.03
2022-08-17T06:00:30.789Z,0.93
2022-08-17T06:03:06.863Z,2.08
2022-08-17T06:05:33.643Z,1.05
2022-08-17T06:08:22.989Z,0.50
2022-08-17T06:10:57.720Z,0.40
2022-08-17T06:14:19.369Z,1.20
2022-08-17T06:16:51.527Z,0.63
2022-08-17T06:19:27.516Z,1.20
2022-08-17T06:21:55.270Z,1.35
2022-08-17T06:24:31.422Z,1.08
2022-08-17T06:27:07.715Z,1.13
2022-08-17T06:29:58.110Z,1.65
2022-08-17T06:32:25.606Z,1.00
2022-08-17T06:34:53.608Z,1.50
2022-08-17T06:37:37.507Z,0.95
2022-08-17T06:40:36.863Z,0.90
2022-08-17T06:43:34.041Z,0.73
2022-08-17T06:46:14.469Z,2.22
2022-08-17T06:48:48.741Z,1.35
2022-08-17T06:51:30.093Z,0.60
2022-08-17T06:54:15.183Z,0.98
2022-08-17T06:56:56.121Z,0.63
2022-08-17T06:59:54.164Z,0.90
2022-08-17T07:02:51.071Z,1.25
2022-08-17T07:05:22.780Z,0.73
2022-08-17T07:08:04.124Z,1.63
2022-08-17T07:10:43.098Z,0.73
2022-08-17T07:13:26.114Z,0.75
2022-08-17T07:15:59.104Z,1.35
2022-08-17T07:18:33.164Z,2.55
2022-08-17T07:21:11.090Z,1.48
2022-08-17T07:24:11.991Z,0.70
2022-08-17T07:27:07.677Z,0.80
2022-08-17T07:29:46.832Z,0.82
2022-08-17T07:32:18.577Z,0.55
2022-08-17T07:35:10.721Z,1.40
2022-08-17T07:37:39.608Z,0.93
2022-08-17T07:40:17.896Z,0.55
2022-08-17T07:43:03.410Z,1.00
2022-08-17T07:45:52.383Z,0.95
2022-08-17T07:48:23.052Z,0.88
2022-08-17T07:50:53.209Z,0.40
2022-08-17T07:53:23.563Z,0.85
2022-08-17T07:55:52.929Z,1.48
2022-08-17T07:58:24.183Z,0.57
2022-08-17T08:01:11.033Z,1.02
2022-08-17T08:03:44.977Z,0.57
2022-08-17T08:06:24.090Z,1.40
2022-08-17T08:08:56.135Z,0.90
2022-08-17T08:11:33.358Z,0.65
2022-08-17T08:14:18.869Z,1.25
2022-08-17T08:17:01.392Z,1.13
2022-08-17T08:19:30.530Z,1.23
2022-08-17T08:22:04.311Z,0.80
2022-08-17T08:24:52.429Z,1.10
2022-08-17T08:27:36.966Z,0.50
2022-08-17T08:30:12.058Z,0.93
2022-08-17T08:32:54.099Z,0.63
2022-08-17T08:35:36.960Z,0.75
2022-08-17T08:38:18.608Z,1.70
2022-08-17T08:40:59.686Z,0.63
2022-08-17T08:43:36.220Z,0.47
2022-08-17T08:46:19.614Z,0.47
2022-08-17T08:49:59.527Z,0.40
2022-08-17T08:53:00.258Z,0.77
2022-08-17T08:55:41.016Z,0.60
2022-08-17T08:58:31.991Z,0.63
2022-08-17T09:01:08.809Z,1.42
2022-08-17T09:04:21.428Z,0.45
2022-08-17T09:06:59.827Z,0.70
2022-08-17T09:09:59.340Z,0.30
2022-08-17T09:12:47.659Z,1.10
2022-08-17T09:15:27.926Z,0.40
2022-08-17T09:19:03.216Z,0.70
2022-08-17T09:21:01.909Z,0.70
2022-08-17T09:23:49.494Z,1.30
2022-08-17T09:26:21.077Z,0.57
2022-08-17T09:28:51.716Z,0.70
2022-08-17T09:31:24.057Z,0.57
2022-08-17T09:33:51.590Z,0.40
2022-08-17T09:36:29.495Z,0.60
2022-08-17T09:39:08.623Z,0.70
2022-08-17T09:41:48.732Z,0.68
2022-08-17T09:44:38.497Z,0.70
2022-08-17T09:47:12.606Z,0.50
2022-08-17T09:50:17.219Z,0.45
2022-08-17T09:52:44.155Z,0.60
2022-08-17T09:55:11.102Z,0.43
2022-08-17T09:58:15.190Z,0.30
2022-08-17T10:00:53.473Z,0.70
2022-08-17T10:03:48.980Z,0.57
2022-08-17T10:06:27.122Z,0.30
2022-08-17T10:09:14.247Z,0.40
2022-08-17T10:12:13.023Z,1.40
2022-08-17T10:14:55.134Z,0.63
2022-08-17T10:17:50.653Z,0.30
2022-08-17T10:20:36.995Z,0.75
2022-08-17T10:23:29.519Z,0.45
2022-08-17T10:26:15.448Z,0.30
2022-08-17T10:28:55.895Z,0.60
2022-08-17T10:31:34.585Z,0.63
2022-08-17T10:34:18.739Z,0.40
2022-08-17T10:36:59.037Z,0.30
2022-08-17T10:39:35.252Z,0.60
2022-08-17T10:42:33.020Z,0.20
2022-08-17T10:45:20.030Z,0.20
2022-08-17T10:48:30.479Z,0.50
2022-08-17T10:51:03.289Z,0.25
2022-08-17T10:53:32.932Z,0.95
2022-08-17T10:56:46.870Z,0.75
2022-08-17T10:59:36.551Z,0.52
2022-08-17T11:02:38.188Z,0.30
2022-08-17T11:05:27.562Z,0.17
2022-08-17T11:08:11.831Z,0.35
2022-08-17T11:10:52.073Z,0.77
2022-08-17T11:13:45.070Z,0.43
2022-08-17T11:16:33.304Z,0.25
2022-08-17T11:19:39.539Z,0.32
2022-08-17T11:22:33.351Z,0.13
2022-08-17T11:25:15.997Z,0.50
2022-08-17T11:27:44.784Z,0.50
2022-08-17T11:30:14.933Z,0.60
2022-08-17T11:32:54.460Z,0.52
2022-08-17T11:35:21.974Z,0.43
2022-08-17T11:38:18.503Z,0.45
2022-08-17T11:41:24.009Z,0.28
2022-08-17T11:44:10.493Z,0.40
2022-08-17T11:47:17.633Z,0.20
2022-08-17T11:50:39.040Z,0.70
2022-08-17T11:53:06.796Z,0.50
2022-08-17T11:55:38.429Z,0.57
2022-08-17T11:58:29.130Z,0.50
2022-08-17T12:01:13.593Z,0.43
2022-08-17T12:03:54.289Z,0.60
2022-08-17T12:07:00.851Z,0.40
2022-08-17T12:09:34.513Z,0.50
2022-08-17T12:12:12.763Z,0.50
2022-08-17T12:15:09.725Z,0.68
2022-08-17T12:17:52.275Z,0.20
2022-08-17T12:20:34.220Z,0.35
2022-08-17T12:23:30.451Z,0.38
2022-08-17T12:26:07.753Z,0.57
2022-08-17T12:28:38.823Z,0.30
2022-08-17T12:31:23.024Z,0.85
2022-08-17T12:33:51.823Z,0.52
2022-08-17T12:36:26.537Z,0.60
2022-08-17T12:39:14.564Z,0.17
2022-08-17T12:41:44.867Z,1.00
2022-08-17T12:44:12.275Z,0.98
2022-08-17T12:46:53.398Z,0.65
2022-08-17T12:49:35.515Z,0.70
2022-08-17T12:52:06.093Z,0.40
2022-08-17T12:54:46.780Z,0.40
2022-08-17T12:57:20.669Z,0.55
2022-08-17T12:59:59.084Z,1.15
2022-08-17T13:02:40.218Z,1.23
2022-08-17T13:05:12.606Z,0.65
2022-08-17T13:07:42.640Z,0.77
2022-08-17T13:10:19.960Z,0.70
2022-08-17T13:12:49.956Z,0.55
2022-08-17T13:15:23.866Z,0.43
2022-08-17T13:18:36.387Z,0.65
2022-08-17T13:21:03.923Z,0.43
2022-08-17T13:23:32.239Z,0.25
2022-08-17T13:26:09.576Z,0.28
2022-08-17T13:28:37.617Z,0.75
2022-08-17T13:31:30.366Z,0.43
2022-08-17T13:34:14.250Z,0.40
2022-08-17T13:36:44.033Z,0.90
2022-08-17T13:39:23.337Z,1.13
2022-08-17T13:41:53.091Z,0.90
2022-08-17T13:44:39.951Z,0.82
2022-08-17T13:47:17.838Z,0.77
2022-08-17T13:49:48.894Z,0.57
2022-08-17T13:52:39.122Z,0.68
2022-08-17T13:55:22.565Z,0.30
2022-08-17T13:58:06.719Z,0.65
2022-08-17T14:00:36.528Z,0.40
2022-08-17T14:03:05.275Z,0.22
2022-08-17T14:05:33.991Z,0.30
2022-08-17T14:08:06.605Z,0.75
2022-08-17T14:10:36.559Z,0.25
2022-08-17T14:13:04.352Z,0.30
2022-08-17T14:15:55.153Z,0.20
2022-08-17T14:18:53.500Z,0.30
2022-08-17T14:21:08.945Z,0.25
2022-08-17T14:23:37.244Z,0.20
2022-08-17T14:26:05.312Z,0.50
2022-08-17T14:28:32.803Z,0.30
2022-08-17T14:31:03.612Z,0.50
2022-08-17T14:33:31.589Z,0.55
2022-08-17T14:36:02.977Z,0.68
2022-08-17T14:38:30.097Z,0.55
2022-08-17T14:40:58.100Z,0.77
2022-08-17T14:43:26.749Z,0.73
2022-08-17T14:45:54.001Z,0.50
2022-08-17T14:48:21.292Z,0.30
2022-08-17T14:50:48.741Z,0.20
2022-08-17T14:53:17.136Z,0.90
2022-08-17T14:55:46.923Z,0.40
2022-08-17T14:58:14.873Z,0.52
2022-08-17T15:00:44.216Z,0.52
2022-08-17T15:03:12.272Z,0.55
2022-08-17T15:05:39.858Z,0.57
2022-08-17T15:08:07.785Z,0.65
2022-08-17T15:10:35.166Z,0.73
2022-08-17T15:13:02.343Z,1.13
2022-08-17T15:15:30.346Z,0.43
2022-08-17T15:17:58.037Z,0.70
2022-08-17T15:20:28.329Z,0.20
2022-08-17T15:22:57.615Z,0.20
2022-08-17T15:25:27.598Z,0.30
2022-08-17T15:27:58.264Z,0.50
2022-08-17T15:30:26.592Z,0.38
2022-08-17T15:32:55.061Z,0.40
2022-08-17T15:35:30.217Z,0.28
2022-08-17T15:38:10.679Z,0.68
2022-08-17T15:40:45.380Z,0.55
2022-08-17T15:43:16.714Z,0.50
2022-08-17T15:45:44.729Z,0.85
2022-08-17T15:48:40.920Z,0.38
2022-08-17T15:51:29.312Z,0.50
2022-08-17T15:54:04.516Z,0.30
2022-08-17T15:56:46.514Z,0.40
2022-08-17T15:59:13.765Z,1.08
2022-08-17T16:03:01.006Z,1.23
2022-08-17T16:04:30.691Z,0.60
2022-08-17T16:06:58.912Z,0.50
2022-08-17T16:09:26.290Z,0.52
2022-08-17T16:11:55.513Z,0.60
2022-08-17T16:14:33.829Z,0.30
2022-08-17T16:17:03.957Z,0.40
2022-08-17T16:19:33.387Z,0.82
2022-08-17T16:22:00.760Z,0.88
2022-08-17T16:24:27.753Z,0.55
2022-08-17T16:26:55.573Z,1.00
2022-08-17T16:29:23.552Z,0.63
2022-08-17T16:31:51.233Z,0.50
2022-08-17T16:34:19.009Z,2.15
2022-08-17T16:36:54.978Z,0.68
2022-08-17T16:39:24.244Z,0.45
2022-08-17T16:41:51.424Z,0.47
2022-08-17T16:44:21.418Z,0.20
2022-08-17T16:46:50.343Z,1.25
2022-08-17T16:49:33.632Z,0.50
2022-08-17T16:52:04.271Z,0.80
2022-08-17T16:54:31.180Z,0.25
2022-08-17T16:56:57.982Z,0.90
2022-08-17T16:59:31.289Z,0.40
2022-08-17T17:02:11.289Z,0.40
2022-08-17T17:04:45.312Z,0.30
2022-08-17T17:07:34.263Z,0.65
2022-08-17T17:10:15.889Z,0.38
2022-08-17T17:13:02.940Z,0.60
2022-08-17T17:15:46.185Z,1.50
2022-08-17T17:18:15.345Z,0.38
2022-08-17T17:20:54.632Z,0.30
2022-08-17T17:23:38.991Z,0.63
2022-08-17T17:26:28.366Z,0.80
2022-08-17T17:29:12.957Z,0.17
2022-08-17T17:31:57.072Z,0.50
2022-08-17T17:34:29.672Z,0.68
2022-08-17T17:37:01.883Z,0.65
2022-08-17T17:39:44.396Z,1.48
2022-08-17T17:42:16.661Z,1.15
2022-08-17T17:44:59.680Z,0.25
2022-08-17T17:47:28.463Z,0.95
2022-08-17T17:49:56.007Z,0.20
2022-08-17T17:52:54.064Z,0.50
2022-08-17T17:55:43.395Z,0.65
2022-08-17T17:58:25.097Z,0.57
2022-08-17T18:01:19.731Z,1.00
2022-08-17T18:04:20.665Z,0.85
2022-08-17T18:07:06.428Z,0.20
2022-08-17T18:09:54.051Z,0.30
2022-08-17T18:12:31.410Z,0.38
2022-08-17T18:15:10.646Z,0.28
2022-08-17T18:17:38.574Z,0.60
2022-08-17T18:20:07.341Z,0.40
2022-08-17T18:22:35.290Z,0.50
2022-08-17T18:25:26.742Z,0.77
2022-08-17T18:27:54.204Z,0.20
2022-08-17T18:30:21.312Z,0.35
2022-08-17T18:32:48.665Z,0.60
2022-08-17T18:35:19.255Z,0.43
2022-08-17T18:37:59.022Z,0.80
2022-08-17T18:40:31.407Z,0.85
2022-08-17T18:43:06.370Z,0.40
2022-08-17T18:45:57.242Z,0.30
2022-08-17T18:48:36.920Z,0.50
2022-08-17T18:51:40.488Z,0.60
2022-08-17T18:54:17.756Z,0.25
2022-08-17T18:56:56.739Z,0.88
2022-08-17T18:59:28.790Z,1.00
2022-08-17T19:05:10.326Z,0.50
2022-08-17T19:07:45.346Z,0.98
2022-08-17T19:10:19.056Z,0.30
2022-08-17T19:13:12.352Z,0.43
2022-08-17T19:16:13.069Z,0.40
2022-08-17T19:19:14.342Z,0.40
2022-08-17T19:21:59.110Z,0.50
2022-08-17T19:24:30.019Z,0.38
2022-08-17T19:27:06.210Z,0.30
2022-08-17T19:29:47.209Z,0.65
2022-08-17T19:32:20.131Z,1.25
2022-08-17T19:34:48.306Z,0.60
2022-08-17T19:37:28.210Z,0.85
2022-08-17T19:40:05.878Z,0.30
2022-08-17T19:42:47.761Z,1.08
2022-08-17T19:46:03.919Z,1.45
2022-08-17T19:48:40.865Z,0.65
2022-08-17T19:51:30.768Z,0.50
2022-08-17T19:54:06.986Z,0.38
2022-08-17T19:56:54.554Z,0.70
2022-08-17T19:59:46.347Z,0.52
2022-08-17T20:02:38.314Z,0.45
2022-08-17T20:06:08.723Z,0.88
2022-08-17T20:08:29.855Z,2.00
2022-08-17T20:11:18.497Z,0.93
2022-08-17T20:14:13.286Z,0.80
2022-08-17T20:16:40.313Z,0.63
2022-08-17T20:19:32.249Z,0.80
2022-08-17T20:22:14.073Z,0.73
2022-08-17T20:24:58.387Z,0.82
2022-08-17T20:27:31.780Z,1.00
2022-08-17T20:30:01.328Z,1.23
2022-08-17T20:32:32.338Z,1.02
2022-08-17T20:35:22.533Z,1.05
2022-08-17T20:37:59.087Z,1.85
2022-08-17T20:40:30.719Z,1.35
2022-08-17T20:42:59.018Z,2.28
2022-08-17T20:45:26.350Z,0.50
2022-08-17T20:48:24.007Z,2.17
2022-08-17T20:50:56.038Z,1.33
2022-08-17T20:53:47.749Z,1.52
2022-08-17T20:56:48.876Z,1.05
2022-08-17T20:59:25.595Z,1.27
2022-08-17T21:02:18.100Z,1.90
2022-08-17T21:05:03.893Z,0.82
2022-08-17T21:07:54.064Z,2.03
2022-08-17T21:10:30.282Z,1.70
2022-08-17T21:13:34.665Z,1.92
2022-08-17T21:16:25.800Z,2.22
2022-08-17T21:18:56.104Z,2.70
2022-08-17T21:22:09.346Z,2.17
2022-08-17T21:24:54.803Z,2.47
2022-08-17T21:27:49.485Z,2.13
2022-08-17T21:30:26.078Z,2.90
2022-08-17T21:33:17.212Z,1.85
2022-08-17T21:35:53.080Z,2.28
2022-08-17T21:38:48.652Z,3.05
2022-08-17T21:41:29.589Z,3.65
2022-08-17T21:44:36.474Z,2.67
2022-08-17T21:47:21.075Z,2.20
2022-08-17T21:49:48.450Z,2.60
2022-08-17T21:52:18.141Z,3.75
2022-08-17T21:54:57.874Z,2.65
2022-08-17T21:57:27.916Z,1.50
2022-08-17T22:00:00.510Z,2.47
2022-08-17T22:02:35.354Z,2.88
2022-08-17T22:05:09.010Z,2.13
2022-08-17T22:07:41.516Z,2.55
2022-08-17T22:10:26.708Z,2.75
2022-08-17T22:13:17.087Z,2.53
2022-08-17T22:15:47.947Z,4.38
2022-08-17T22:18:26.934Z,2.25
2022-08-17T22:20:56.716Z,2.83
2022-08-17T22:23:51.062Z,2.45
2022-08-17T22:26:19.595Z,3.55
2022-08-17T22:28:56.383Z,4.40
2022-08-17T22:31:29.470Z,3.40
2022-08-17T22:34:02.000Z,2.72
2022-08-17T22:36:33.096Z,5.07
2022-08-17T22:39:22.628Z,3.25
2022-08-17T22:42:00.914Z,3.90
2022-08-17T22:44:54.107Z,2.97
2022-08-17T22:47:32.114Z,2.83
2022-08-17T22:50:01.731Z,4.60
2022-08-17T22:52:58.877Z,3.38
2022-08-17T22:55:46.126Z,3.47
2022-08-17T22:58:35.827Z,3.28
2022-08-17T23:01:23.170Z,3.65
2022-08-17T23:04:02.369Z,4.53
2022-08-17T23:06:33.851Z,4.00
2022-08-17T23:09:04.144Z,5.15
2022-08-17T23:11:48.728Z,2.75
2022-08-17T23:14:19.143Z,3.00
2022-08-17T23:16:47.666Z,4.82
2022-08-17T23:19:17.999Z,5.32
2022-08-17T23:21:45.381Z,4.95
2022-08-17T23:24:18.607Z,5.47
2022-08-17T23:26:45.623Z,3.88
2022-08-17T23:29:12.439Z,5.63
2022-08-17T23:31:39.930Z,4.63
2022-08-17T23:34:13.457Z,4.95
2022-08-17T23:36:40.674Z,5.03
2022-08-17T23:39:07.783Z,4.40
2022-08-17T23:41:38.670Z,4.85
2022-08-17T23:44:06.404Z,5.47
2022-08-17T23:46:34.513Z,4.05
2022-08-17T23:49:01.455Z,3.53
2022-08-17T23:51:34.645Z,3.55
2022-08-17T23:54:08.388Z,4.55
2022-08-17T23:56:43.964Z,5.07
2022-08-17T23:59:11.656Z,5.22
